sensor_id;sensor_type;location;lat;lon;timestamp;temperature;humidity
78779;DHT22;68121;52.404;5.318;2023-10-09T00:01:45;14.80;76.10
78779;DHT22;68121;52.404;5.318;2023-10-09T00:04:12;14.80;76.10
78779;DHT22;68121;52.404;5.318;2023-10-09T00:06:40;14.90;76.20
78779;DHT22;68121;52.404;5.318;2023-10-09T00:09:08;14.90;76.20
78779;DHT22;68121;52.404;5.318;2023-10-09T00:11:51;14.90;76.20
78779;DHT22;68121;52.404;5.318;2023-10-09T00:14:25;15.00;76.10
78779;DHT22;68121;52.404;5.318;2023-10-09T00:16:52;15.00;76.20
78779;DHT22;68121;52.404;5.318;2023-10-09T00:19:36;15.00;76.20
78779;DHT22;68121;52.404;5.318;2023-10-09T00:22:03;15.10;76.20
78779;DHT22;68121;52.404;5.318;2023-10-09T00:24:56;15.20;76.20
78779;DHT22;68121;52.404;5.318;2023-10-09T00:27:43;15.20;76.20
78779;DHT22;68121;52.404;5.318;2023-10-09T00:30:15;15.30;76.30
78779;DHT22;68121;52.404;5.318;2023-10-09T00:32:47;15.30;76.30
78779;DHT22;68121;52.404;5.318;2023-10-09T00:35:27;15.40;76.30
78779;DHT22;68121;52.404;5.318;2023-10-09T00:38:03;15.40;76.40
78779;DHT22;68121;52.404;5.318;2023-10-09T00:40:40;15.50;76.40
78779;DHT22;68121;52.404;5.318;2023-10-09T00:43:15;15.50;76.50
78779;DHT22;68121;52.404;5.318;2023-10-09T00:45:46;15.60;76.50
78779;DHT22;68121;52.404;5.318;2023-10-09T00:48:13;15.60;76.50
78779;DHT22;68121;52.404;5.318;2023-10-09T00:50:47;15.60;76.50
78779;DHT22;68121;52.404;5.318;2023-10-09T00:53:20;15.60;76.50
78779;DHT22;68121;52.404;5.318;2023-10-09T00:55:58;15.70;76.50
78779;DHT22;68121;52.404;5.318;2023-10-09T00:58:29;15.70;76.50
78779;DHT22;68121;52.404;5.318;2023-10-09T01:00:57;15.80;76.50
78779;DHT22;68121;52.404;5.318;2023-10-09T01:03:25;15.80;76.60
78779;DHT22;68121;52.404;5.318;2023-10-09T01:06:00;15.80;76.60
78779;DHT22;68121;52.404;5.318;2023-10-09T01:08:42;15.80;76.70
78779;DHT22;68121;52.404;5.318;2023-10-09T01:11:11;15.80;76.60
78779;DHT22;68121;52.404;5.318;2023-10-09T01:13:56;15.90;76.60
78779;DHT22;68121;52.404;5.318;2023-10-09T01:16:34;15.90;76.60
78779;DHT22;68121;52.404;5.318;2023-10-09T01:19:01;15.90;76.60
78779;DHT22;68121;52.404;5.318;2023-10-09T01:21:32;15.90;76.60
78779;DHT22;68121;52.404;5.318;2023-10-09T01:23:58;16.00;76.70
78779;DHT22;68121;52.404;5.318;2023-10-09T01:26:37;16.00;76.70
78779;DHT22;68121;52.404;5.318;2023-10-09T01:29:23;16.00;76.70
78779;DHT22;68121;52.404;5.318;2023-10-09T01:31:54;16.00;76.70
78779;DHT22;68121;52.404;5.318;2023-10-09T01:34:24;16.00;76.50
78779;DHT22;68121;52.404;5.318;2023-10-09T01:37:09;16.00;76.50
78779;DHT22;68121;52.404;5.318;2023-10-09T01:39:52;16.00;76.60
78779;DHT22;68121;52.404;5.318;2023-10-09T01:42:19;16.00;76.60
78779;DHT22;68121;52.404;5.318;2023-10-09T01:45:01;16.00;76.60
78779;DHT22;68121;52.404;5.318;2023-10-09T01:47:41;16.00;76.60
78779;DHT22;68121;52.404;5.318;2023-10-09T01:50:17;16.00;76.60
78779;DHT22;68121;52.404;5.318;2023-10-09T01:53:02;16.10;76.70
78779;DHT22;68121;52.404;5.318;2023-10-09T01:55:32;16.10;76.60
78779;DHT22;68121;52.404;5.318;2023-10-09T01:58:07;16.10;76.60
78779;DHT22;68121;52.404;5.318;2023-10-09T02:00:48;16.10;76.70
78779;DHT22;68121;52.404;5.318;2023-10-09T02:03:19;16.10;76.60
78779;DHT22;68121;52.404;5.318;2023-10-09T02:05:51;16.10;76.70
78779;DHT22;68121;52.404;5.318;2023-10-09T02:08:19;16.20;76.60
78779;DHT22;68121;52.404;5.318;2023-10-09T02:10:53;16.10;76.70
78779;DHT22;68121;52.404;5.318;2023-10-09T02:13:22;16.20;76.70
78779;DHT22;68121;52.404;5.318;2023-10-09T02:16:01;16.20;76.70
78779;DHT22;68121;52.404;5.318;2023-10-09T02:18:39;16.10;76.70
78779;DHT22;68121;52.404;5.318;2023-10-09T02:21:22;16.20;76.70
78779;DHT22;68121;52.404;5.318;2023-10-09T02:24:06;16.20;76.70
78779;DHT22;68121;52.404;5.318;2023-10-09T02:26:35;16.20;76.70
78779;DHT22;68121;52.404;5.318;2023-10-09T02:29:04;16.20;76.70
78779;DHT22;68121;52.404;5.318;2023-10-09T02:31:41;16.20;76.80
78779;DHT22;68121;52.404;5.318;2023-10-09T02:34:10;16.20;76.80
78779;DHT22;68121;52.404;5.318;2023-10-09T02:36:37;16.20;76.80
78779;DHT22;68121;52.404;5.318;2023-10-09T02:39:07;16.30;76.80
78779;DHT22;68121;52.404;5.318;2023-10-09T02:41:50;16.30;76.80
78779;DHT22;68121;52.404;5.318;2023-10-09T02:44:16;16.30;76.70
78779;DHT22;68121;52.404;5.318;2023-10-09T02:46:45;16.40;76.80
78779;DHT22;68121;52.404;5.318;2023-10-09T02:49:11;16.40;76.80
78779;DHT22;68121;52.404;5.318;2023-10-09T02:51:41;16.40;76.80
78779;DHT22;68121;52.404;5.318;2023-10-09T02:54:08;16.40;76.90
78779;DHT22;68121;52.404;5.318;2023-10-09T02:56:51;16.40;76.90
78779;DHT22;68121;52.404;5.318;2023-10-09T02:59:23;16.40;76.90
78779;DHT22;68121;52.404;5.318;2023-10-09T03:01:50;16.40;76.90
78779;DHT22;68121;52.404;5.318;2023-10-09T03:04:19;16.40;76.90
78779;DHT22;68121;52.404;5.318;2023-10-09T03:06:45;16.40;76.90
78779;DHT22;68121;52.404;5.318;2023-10-09T03:09:20;16.40;76.90
78779;DHT22;68121;52.404;5.318;2023-10-09T03:11:55;16.40;76.90
78779;DHT22;68121;52.404;5.318;2023-10-09T03:14:28;16.40;77.00
78779;DHT22;68121;52.404;5.318;2023-10-09T03:16:55;16.40;77.00
78779;DHT22;68121;52.404;5.318;2023-10-09T03:19:29;16.40;77.00
78779;DHT22;68121;52.404;5.318;2023-10-09T03:21:56;16.40;77.00
78779;DHT22;68121;52.404;5.318;2023-10-09T03:24:27;16.40;77.00
78779;DHT22;68121;52.404;5.318;2023-10-09T03:26:54;16.40;77.00
78779;DHT22;68121;52.404;5.318;2023-10-09T03:29:22;16.40;77.00
78779;DHT22;68121;52.404;5.318;2023-10-09T03:31:48;16.40;77.10
78779;DHT22;68121;52.404;5.318;2023-10-09T03:34:17;16.40;77.10
78779;DHT22;68121;52.404;5.318;2023-10-09T03:36:45;16.40;77.10
78779;DHT22;68121;52.404;5.318;2023-10-09T03:39:11;16.40;77.10
78779;DHT22;68121;52.404;5.318;2023-10-09T03:41:56;16.40;77.10
78779;DHT22;68121;52.404;5.318;2023-10-09T03:44:24;16.40;77.10
78779;DHT22;68121;52.404;5.318;2023-10-09T03:46:54;16.40;77.10
78779;DHT22;68121;52.404;5.318;2023-10-09T03:49:20;16.50;77.10
78779;DHT22;68121;52.404;5.318;2023-10-09T03:51:50;16.50;77.20
78779;DHT22;68121;52.404;5.318;2023-10-09T03:54:16;16.50;77.20
78779;DHT22;68121;52.404;5.318;2023-10-09T03:56:46;16.50;77.10
78779;DHT22;68121;52.404;5.318;2023-10-09T03:59:17;16.50;77.20
78779;DHT22;68121;52.404;5.318;2023-10-09T04:01:46;16.50;77.20
78779;DHT22;68121;52.404;5.318;2023-10-09T04:04:14;16.50;77.20
78779;DHT22;68121;52.404;5.318;2023-10-09T04:06:40;16.50;77.20
78779;DHT22;68121;52.404;5.318;2023-10-09T04:09:09;16.50;77.20
78779;DHT22;68121;52.404;5.318;2023-10-09T04:11:44;16.50;77.20
78779;DHT22;68121;52.404;5.318;2023-10-09T04:14:15;16.50;77.20
78779;DHT22;68121;52.404;5.318;2023-10-09T04:16:58;16.50;77.20
78779;DHT22;68121;52.404;5.318;2023-10-09T04:19:53;16.60;77.20
78779;DHT22;68121;52.404;5.318;2023-10-09T04:22:38;16.60;77.10
78779;DHT22;68121;52.404;5.318;2023-10-09T04:25:25;16.60;77.00
78779;DHT22;68121;52.404;5.318;2023-10-09T04:27:53;16.60;77.10
78779;DHT22;68121;52.404;5.318;2023-10-09T04:30:19;16.70;77.00
78779;DHT22;68121;52.404;5.318;2023-10-09T04:32:45;16.70;77.00
78779;DHT22;68121;52.404;5.318;2023-10-09T04:35:12;16.70;77.00
78779;DHT22;68121;52.404;5.318;2023-10-09T04:37:52;16.70;77.00
78779;DHT22;68121;52.404;5.318;2023-10-09T04:40:25;16.70;77.00
78779;DHT22;68121;52.404;5.318;2023-10-09T04:43:21;16.70;77.00
78779;DHT22;68121;52.404;5.318;2023-10-09T04:45:50;16.70;77.00
78779;DHT22;68121;52.404;5.318;2023-10-09T04:48:32;16.70;77.00
78779;DHT22;68121;52.404;5.318;2023-10-09T04:51:05;16.70;77.00
78779;DHT22;68121;52.404;5.318;2023-10-09T04:53:47;16.70;77.10
78779;DHT22;68121;52.404;5.318;2023-10-09T04:56:25;16.70;77.00
78779;DHT22;68121;52.404;5.318;2023-10-09T04:58:57;16.70;77.00
78779;DHT22;68121;52.404;5.318;2023-10-09T05:01:30;16.70;77.00
78779;DHT22;68121;52.404;5.318;2023-10-09T05:04:03;16.80;77.00
78779;DHT22;68121;52.404;5.318;2023-10-09T05:06:41;16.80;77.00
78779;DHT22;68121;52.404;5.318;2023-10-09T05:09:22;16.80;77.00
78779;DHT22;68121;52.404;5.318;2023-10-09T05:11:48;16.80;77.00
78779;DHT22;68121;52.404;5.318;2023-10-09T05:14:17;16.80;76.90
78779;DHT22;68121;52.404;5.318;2023-10-09T05:16:45;16.90;76.90
78779;DHT22;68121;52.404;5.318;2023-10-09T05:19:21;16.90;76.90
78779;DHT22;68121;52.404;5.318;2023-10-09T05:22:11;17.00;76.80
78779;DHT22;68121;52.404;5.318;2023-10-09T05:24:57;17.00;76.70
78779;DHT22;68121;52.404;5.318;2023-10-09T05:27:24;17.00;76.70
78779;DHT22;68121;52.404;5.318;2023-10-09T05:30:10;17.00;76.60
78779;DHT22;68121;52.404;5.318;2023-10-09T05:32:54;17.10;76.50
78779;DHT22;68121;52.404;5.318;2023-10-09T05:35:39;17.10;76.50
78779;DHT22;68121;52.404;5.318;2023-10-09T05:38:25;17.20;76.50
78779;DHT22;68121;52.404;5.318;2023-10-09T05:40:51;17.20;76.50
78779;DHT22;68121;52.404;5.318;2023-10-09T05:43:40;17.20;76.40
78779;DHT22;68121;52.404;5.318;2023-10-09T05:46:24;17.20;76.40
78779;DHT22;68121;52.404;5.318;2023-10-09T05:49:01;17.20;76.40
78779;DHT22;68121;52.404;5.318;2023-10-09T05:51:36;17.20;76.40
78779;DHT22;68121;52.404;5.318;2023-10-09T05:54:08;17.20;76.40
78779;DHT22;68121;52.404;5.318;2023-10-09T05:57:09;17.20;76.30
78779;DHT22;68121;52.404;5.318;2023-10-09T05:59:55;17.20;76.30
78779;DHT22;68121;52.404;5.318;2023-10-09T06:02:39;17.20;76.30
78779;DHT22;68121;52.404;5.318;2023-10-09T06:05:31;17.20;76.30
78779;DHT22;68121;52.404;5.318;2023-10-09T06:08:07;17.30;76.30
78779;DHT22;68121;52.404;5.318;2023-10-09T06:10:33;17.30;76.30
78779;DHT22;68121;52.404;5.318;2023-10-09T06:13:08;17.30;76.20
78779;DHT22;68121;52.404;5.318;2023-10-09T06:15:54;17.40;76.30
78779;DHT22;68121;52.404;5.318;2023-10-09T06:18:35;17.30;76.20
78779;DHT22;68121;52.404;5.318;2023-10-09T06:21:01;17.40;76.30
78779;DHT22;68121;52.404;5.318;2023-10-09T06:23:56;17.40;76.20
78779;DHT22;68121;52.404;5.318;2023-10-09T06:26:44;17.40;76.30
78779;DHT22;68121;52.404;5.318;2023-10-09T06:29:29;17.50;76.20
78779;DHT22;68121;52.404;5.318;2023-10-09T06:32:17;17.60;76.00
78779;DHT22;68121;52.404;5.318;2023-10-09T06:34:50;17.80;75.70
78779;DHT22;68121;52.404;5.318;2023-10-09T06:37:42;17.80;75.70
78779;DHT22;68121;52.404;5.318;2023-10-09T06:40:31;17.90;75.50
78779;DHT22;68121;52.404;5.318;2023-10-09T06:43:03;18.00;75.30
78779;DHT22;68121;52.404;5.318;2023-10-09T06:45:36;18.00;75.20
78779;DHT22;68121;52.404;5.318;2023-10-09T06:48:14;18.10;75.20
78779;DHT22;68121;52.404;5.318;2023-10-09T06:51:10;18.10;75.00
78779;DHT22;68121;52.404;5.318;2023-10-09T06:53:52;18.10;74.90
78779;DHT22;68121;52.404;5.318;2023-10-09T06:56:28;18.10;75.00
78779;DHT22;68121;52.404;5.318;2023-10-09T07:01:48;18.20;74.80
78779;DHT22;68121;52.404;5.318;2023-10-09T07:04:34;18.20;74.80
78779;DHT22;68121;52.404;5.318;2023-10-09T07:07:00;18.20;74.70
78779;DHT22;68121;52.404;5.318;2023-10-09T07:09:27;18.20;74.70
78779;DHT22;68121;52.404;5.318;2023-10-09T07:12:10;18.10;74.80
78779;DHT22;68121;52.404;5.318;2023-10-09T07:14:40;18.00;75.00
78779;DHT22;68121;52.404;5.318;2023-10-09T07:17:07;18.00;75.10
78779;DHT22;68121;52.404;5.318;2023-10-09T07:19:49;18.00;75.10
78779;DHT22;68121;52.404;5.318;2023-10-09T07:22:15;18.00;75.20
78779;DHT22;68121;52.404;5.318;2023-10-09T07:24:56;18.00;75.30
78779;DHT22;68121;52.404;5.318;2023-10-09T07:27:30;17.90;75.40
78779;DHT22;68121;52.404;5.318;2023-10-09T07:30:16;17.90;75.40
78779;DHT22;68121;52.404;5.318;2023-10-09T07:33:00;17.90;75.40
78779;DHT22;68121;52.404;5.318;2023-10-09T07:35:32;18.00;75.50
78779;DHT22;68121;52.404;5.318;2023-10-09T07:40:39;18.00;75.30
78779;DHT22;68121;52.404;5.318;2023-10-09T07:43:29;18.00;75.40
78779;DHT22;68121;52.404;5.318;2023-10-09T07:46:09;18.00;75.30
78779;DHT22;68121;52.404;5.318;2023-10-09T07:48:57;18.00;75.40
78779;DHT22;68121;52.404;5.318;2023-10-09T07:51:24;18.00;75.40
78779;DHT22;68121;52.404;5.318;2023-10-09T07:53:57;18.00;75.30
78779;DHT22;68121;52.404;5.318;2023-10-09T07:56:36;18.00;75.40
78779;DHT22;68121;52.404;5.318;2023-10-09T07:59:15;18.00;75.40
78779;DHT22;68121;52.404;5.318;2023-10-09T08:01:45;18.10;75.40
78779;DHT22;68121;52.404;5.318;2023-10-09T08:04:30;18.10;75.40
78779;DHT22;68121;52.404;5.318;2023-10-09T08:07:15;18.10;75.40
78779;DHT22;68121;52.404;5.318;2023-10-09T08:10:09;18.20;75.40
78779;DHT22;68121;52.404;5.318;2023-10-09T08:12:44;18.20;75.40
78779;DHT22;68121;52.404;5.318;2023-10-09T08:15:25;18.20;75.40
78779;DHT22;68121;52.404;5.318;2023-10-09T08:18:14;18.30;75.30
78779;DHT22;68121;52.404;5.318;2023-10-09T08:20:54;18.30;75.30
78779;DHT22;68121;52.404;5.318;2023-10-09T08:23:24;18.30;75.30
78779;DHT22;68121;52.404;5.318;2023-10-09T08:26:03;18.40;75.20
78779;DHT22;68121;52.404;5.318;2023-10-09T08:28:41;18.40;75.20
78779;DHT22;68121;52.404;5.318;2023-10-09T08:31:12;18.50;75.20
78779;DHT22;68121;52.404;5.318;2023-10-09T08:34:03;18.50;75.20
78779;DHT22;68121;52.404;5.318;2023-10-09T08:36:29;18.60;75.00
78779;DHT22;68121;52.404;5.318;2023-10-09T08:39:05;18.60;75.00
78779;DHT22;68121;52.404;5.318;2023-10-09T08:41:55;18.70;74.90
78779;DHT22;68121;52.404;5.318;2023-10-09T08:44:24;18.80;74.70
78779;DHT22;68121;52.404;5.318;2023-10-09T08:46:54;18.80;74.70
78779;DHT22;68121;52.404;5.318;2023-10-09T08:49:21;18.90;74.60
78779;DHT22;68121;52.404;5.318;2023-10-09T08:51:47;18.90;74.50
78779;DHT22;68121;52.404;5.318;2023-10-09T08:54:14;19.00;74.40
78779;DHT22;68121;52.404;5.318;2023-10-09T08:56:41;19.00;74.30
78779;DHT22;68121;52.404;5.318;2023-10-09T08:59:16;19.10;74.20
78779;DHT22;68121;52.404;5.318;2023-10-09T09:01:49;19.20;74.10
78779;DHT22;68121;52.404;5.318;2023-10-09T09:07:01;19.20;73.80
78779;DHT22;68121;52.404;5.318;2023-10-09T09:09:27;19.30;73.90
78779;DHT22;68121;52.404;5.318;2023-10-09T09:11:56;19.30;73.90
78779;DHT22;68121;52.404;5.318;2023-10-09T09:14:35;19.30;73.80
78779;DHT22;68121;52.404;5.318;2023-10-09T09:17:03;19.40;73.80
78779;DHT22;68121;52.404;5.318;2023-10-09T09:19:31;19.40;73.80
78779;DHT22;68121;52.404;5.318;2023-10-09T09:21:58;19.50;73.70
78779;DHT22;68121;52.404;5.318;2023-10-09T09:24:41;19.40;73.60
78779;DHT22;68121;52.404;5.318;2023-10-09T09:27:13;19.50;73.70
78779;DHT22;68121;52.404;5.318;2023-10-09T09:29:44;19.50;73.60
78779;DHT22;68121;52.404;5.318;2023-10-09T09:32:27;19.40;73.60
78779;DHT22;68121;52.404;5.318;2023-10-09T09:35:02;19.40;73.60
78779;DHT22;68121;52.404;5.318;2023-10-09T09:37:32;19.40;73.60
78779;DHT22;68121;52.404;5.318;2023-10-09T09:40:16;19.40;73.60
78779;DHT22;68121;52.404;5.318;2023-10-09T09:42:59;19.40;73.60
78779;DHT22;68121;52.404;5.318;2023-10-09T09:45:36;19.40;73.60
78779;DHT22;68121;52.404;5.318;2023-10-09T09:48:04;19.40;73.60
78779;DHT22;68121;52.404;5.318;2023-10-09T09:50:41;19.40;73.50
78779;DHT22;68121;52.404;5.318;2023-10-09T09:53:11;19.40;73.50
78779;DHT22;68121;52.404;5.318;2023-10-09T09:55:51;19.40;73.50
78779;DHT22;68121;52.404;5.318;2023-10-09T09:58:27;19.40;73.50
78779;DHT22;68121;52.404;5.318;2023-10-09T10:01:10;19.40;73.50
78779;DHT22;68121;52.404;5.318;2023-10-09T10:03:57;19.40;73.40
78779;DHT22;68121;52.404;5.318;2023-10-09T10:06:27;19.40;73.40
78779;DHT22;68121;52.404;5.318;2023-10-09T10:08:55;19.40;73.40
78779;DHT22;68121;52.404;5.318;2023-10-09T10:14:11;19.50;73.30
78779;DHT22;68121;52.404;5.318;2023-10-09T10:17:06;19.50;73.30
78779;DHT22;68121;52.404;5.318;2023-10-09T10:20:00;19.50;73.20
78779;DHT22;68121;52.404;5.318;2023-10-09T10:22:30;19.50;73.10
78779;DHT22;68121;52.404;5.318;2023-10-09T10:24:57;19.50;73.20
78779;DHT22;68121;52.404;5.318;2023-10-09T10:27:35;19.50;73.00
78779;DHT22;68121;52.404;5.318;2023-10-09T10:30:27;19.60;73.00
78779;DHT22;68121;52.404;5.318;2023-10-09T10:33:00;19.60;72.90
78779;DHT22;68121;52.404;5.318;2023-10-09T10:35:36;19.60;72.90
78779;DHT22;68121;52.404;5.318;2023-10-09T10:38:25;19.70;72.80
78779;DHT22;68121;52.404;5.318;2023-10-09T10:40:51;19.70;72.70
78779;DHT22;68121;52.404;5.318;2023-10-09T10:43:23;19.70;72.70
78779;DHT22;68121;52.404;5.318;2023-10-09T10:46:13;19.70;72.60
78779;DHT22;68121;52.404;5.318;2023-10-09T10:48:50;19.70;72.50
78779;DHT22;68121;52.404;5.318;2023-10-09T10:51:34;19.70;72.70
78779;DHT22;68121;52.404;5.318;2023-10-09T10:54:04;19.70;72.60
78779;DHT22;68121;52.404;5.318;2023-10-09T10:56:49;19.70;72.50
78779;DHT22;68121;52.404;5.318;2023-10-09T10:59:16;19.70;72.50
78779;DHT22;68121;52.404;5.318;2023-10-09T11:01:53;19.70;72.40
78779;DHT22;68121;52.404;5.318;2023-10-09T11:04:20;19.80;72.30
78779;DHT22;68121;52.404;5.318;2023-10-09T11:06:56;19.80;72.20
78779;DHT22;68121;52.404;5.318;2023-10-09T11:09:54;19.80;72.20
78779;DHT22;68121;52.404;5.318;2023-10-09T11:12:27;19.80;72.20
78779;DHT22;68121;52.404;5.318;2023-10-09T11:15:08;19.80;72.20
78779;DHT22;68121;52.404;5.318;2023-10-09T11:18:06;19.90;72.20
78779;DHT22;68121;52.404;5.318;2023-10-09T11:20:44;19.90;72.10
78779;DHT22;68121;52.404;5.318;2023-10-09T11:23:23;19.90;72.10
78779;DHT22;68121;52.404;5.318;2023-10-09T11:26:05;20.00;72.10
78779;DHT22;68121;52.404;5.318;2023-10-09T11:29:15;20.00;72.00
78779;DHT22;68121;52.404;5.318;2023-10-09T11:32:02;20.00;71.90
78779;DHT22;68121;52.404;5.318;2023-10-09T11:34:30;20.10;71.90
78779;DHT22;68121;52.404;5.318;2023-10-09T11:37:12;20.10;71.80
78779;DHT22;68121;52.404;5.318;2023-10-09T11:39:42;20.00;71.70
78779;DHT22;68121;52.404;5.318;2023-10-09T11:42:20;20.00;71.80
78779;DHT22;68121;52.404;5.318;2023-10-09T11:45:03;20.00;71.80
78779;DHT22;68121;52.404;5.318;2023-10-09T11:47:46;20.00;71.80
78779;DHT22;68121;52.404;5.318;2023-10-09T11:50:45;20.00;71.90
78779;DHT22;68121;52.404;5.318;2023-10-09T11:53:44;20.00;71.90
78779;DHT22;68121;52.404;5.318;2023-10-09T11:56:16;20.00;71.90
78779;DHT22;68121;52.404;5.318;2023-10-09T11:58:49;20.00;72.00
78779;DHT22;68121;52.404;5.318;2023-10-09T12:01:19;20.00;72.00
78779;DHT22;68121;52.404;5.318;2023-10-09T12:03:49;20.00;72.00
78779;DHT22;68121;52.404;5.318;2023-10-09T12:06:17;20.00;72.00
78779;DHT22;68121;52.404;5.318;2023-10-09T12:08:50;20.00;71.90
78779;DHT22;68121;52.404;5.318;2023-10-09T12:11:19;20.00;71.90
78779;DHT22;68121;52.404;5.318;2023-10-09T12:13:49;20.00;71.80
78779;DHT22;68121;52.404;5.318;2023-10-09T12:16:15;20.00;71.80
78779;DHT22;68121;52.404;5.318;2023-10-09T12:18:41;20.00;71.80
78779;DHT22;68121;52.404;5.318;2023-10-09T12:21:08;20.00;71.90
78779;DHT22;68121;52.404;5.318;2023-10-09T12:23:41;20.00;71.80
78779;DHT22;68121;52.404;5.318;2023-10-09T12:26:09;19.90;71.80
78779;DHT22;68121;52.404;5.318;2023-10-09T12:28:41;20.00;71.80
78779;DHT22;68121;52.404;5.318;2023-10-09T12:31:15;19.90;71.90
78779;DHT22;68121;52.404;5.318;2023-10-09T12:33:42;19.90;71.90
78779;DHT22;68121;52.404;5.318;2023-10-09T12:36:12;19.90;71.90
78779;DHT22;68121;52.404;5.318;2023-10-09T12:38:49;19.90;71.90
78779;DHT22;68121;52.404;5.318;2023-10-09T12:41:19;19.90;71.90
78779;DHT22;68121;52.404;5.318;2023-10-09T12:43:51;19.80;72.00
78779;DHT22;68121;52.404;5.318;2023-10-09T12:46:21;19.70;72.10
78779;DHT22;68121;52.404;5.318;2023-10-09T12:48:49;19.70;72.20
78779;DHT22;68121;52.404;5.318;2023-10-09T12:51:15;19.70;72.30
78779;DHT22;68121;52.404;5.318;2023-10-09T12:53:45;19.70;72.50
78779;DHT22;68121;52.404;5.318;2023-10-09T12:56:12;19.60;72.60
78779;DHT22;68121;52.404;5.318;2023-10-09T12:58:38;19.50;72.70
78779;DHT22;68121;52.404;5.318;2023-10-09T13:01:05;19.50;72.80
78779;DHT22;68121;52.404;5.318;2023-10-09T13:03:38;19.50;72.80
78779;DHT22;68121;52.404;5.318;2023-10-09T13:06:04;19.50;73.00
78779;DHT22;68121;52.404;5.318;2023-10-09T13:08:36;19.40;73.10
78779;DHT22;68121;52.404;5.318;2023-10-09T13:11:07;19.40;73.20
78779;DHT22;68121;52.404;5.318;2023-10-09T13:13:45;19.40;73.40
78779;DHT22;68121;52.404;5.318;2023-10-09T13:16:21;19.40;73.50
78779;DHT22;68121;52.404;5.318;2023-10-09T13:18:54;19.40;73.60
78779;DHT22;68121;52.404;5.318;2023-10-09T13:21:22;19.30;73.50
78779;DHT22;68121;52.404;5.318;2023-10-09T13:23:50;19.30;73.50
78779;DHT22;68121;52.404;5.318;2023-10-09T13:26:17;19.30;73.40
78779;DHT22;68121;52.404;5.318;2023-10-09T13:28:48;19.30;73.40
78779;DHT22;68121;52.404;5.318;2023-10-09T13:31:15;19.30;73.40
78779;DHT22;68121;52.404;5.318;2023-10-09T13:33:42;19.30;73.30
78779;DHT22;68121;52.404;5.318;2023-10-09T13:36:12;19.40;73.20
78779;DHT22;68121;52.404;5.318;2023-10-09T13:39:03;19.40;73.20
78779;DHT22;68121;52.404;5.318;2023-10-09T13:41:53;19.40;73.20
78779;DHT22;68121;52.404;5.318;2023-10-09T13:44:31;19.40;73.00
78779;DHT22;68121;52.404;5.318;2023-10-09T13:46:59;19.40;73.00
78779;DHT22;68121;52.404;5.318;2023-10-09T13:49:27;19.50;72.80
78779;DHT22;68121;52.404;5.318;2023-10-09T13:51:56;19.50;72.70
78779;DHT22;68121;52.404;5.318;2023-10-09T13:54:23;19.60;72.50
78779;DHT22;68121;52.404;5.318;2023-10-09T13:57:01;19.70;72.40
78779;DHT22;68121;52.404;5.318;2023-10-09T13:59:30;19.70;72.30
78779;DHT22;68121;52.404;5.318;2023-10-09T14:01:57;19.80;72.20
78779;DHT22;68121;52.404;5.318;2023-10-09T14:04:25;19.90;72.10
78779;DHT22;68121;52.404;5.318;2023-10-09T14:06:55;19.90;72.00
78779;DHT22;68121;52.404;5.318;2023-10-09T14:09:26;20.00;71.80
78779;DHT22;68121;52.404;5.318;2023-10-09T14:12:06;20.00;71.80
78779;DHT22;68121;52.404;5.318;2023-10-09T14:14:41;20.10;71.80
78779;DHT22;68121;52.404;5.318;2023-10-09T14:17:17;20.30;71.80
78779;DHT22;68121;52.404;5.318;2023-10-09T14:19:50;20.50;71.70
78779;DHT22;68121;52.404;5.318;2023-10-09T14:22:22;20.60;71.60
78779;DHT22;68121;52.404;5.318;2023-10-09T14:24:51;20.80;71.30
78779;DHT22;68121;52.404;5.318;2023-10-09T14:27:24;20.90;71.10
78779;DHT22;68121;52.404;5.318;2023-10-09T14:30:01;21.00;71.00
78779;DHT22;68121;52.404;5.318;2023-10-09T14:32:27;21.00;70.90
78779;DHT22;68121;52.404;5.318;2023-10-09T14:35:00;21.10;70.80
78779;DHT22;68121;52.404;5.318;2023-10-09T14:37:39;21.10;70.70
78779;DHT22;68121;52.404;5.318;2023-10-09T14:40:06;21.10;70.50
78779;DHT22;68121;52.404;5.318;2023-10-09T14:42:39;21.10;70.40
78779;DHT22;68121;52.404;5.318;2023-10-09T14:45:10;21.10;70.20
78779;DHT22;68121;52.404;5.318;2023-10-09T14:47:42;21.10;70.10
78779;DHT22;68121;52.404;5.318;2023-10-09T14:50:08;21.00;70.00
78779;DHT22;68121;52.404;5.318;2023-10-09T14:52:35;20.90;69.90
78779;DHT22;68121;52.404;5.318;2023-10-09T14:55:05;20.80;69.90
78779;DHT22;68121;52.404;5.318;2023-10-09T14:57:32;20.80;70.00
78779;DHT22;68121;52.404;5.318;2023-10-09T15:00:00;20.70;70.00
78779;DHT22;68121;52.404;5.318;2023-10-09T15:02:27;20.60;70.00
78779;DHT22;68121;52.404;5.318;2023-10-09T15:04:53;20.50;70.00
78779;DHT22;68121;52.404;5.318;2023-10-09T15:07:19;20.50;70.10
78779;DHT22;68121;52.404;5.318;2023-10-09T15:09:46;20.50;70.10
78779;DHT22;68121;52.404;5.318;2023-10-09T15:12:13;20.40;70.30
78779;DHT22;68121;52.404;5.318;2023-10-09T15:14:39;20.30;70.30
78779;DHT22;68121;52.404;5.318;2023-10-09T15:17:05;20.30;70.30
78779;DHT22;68121;52.404;5.318;2023-10-09T15:19:33;20.30;70.40
78779;DHT22;68121;52.404;5.318;2023-10-09T15:21:59;20.30;70.40
78779;DHT22;68121;52.404;5.318;2023-10-09T15:24:27;20.30;70.50
78779;DHT22;68121;52.404;5.318;2023-10-09T15:26:55;20.30;70.50
78779;DHT22;68121;52.404;5.318;2023-10-09T15:29:26;20.30;70.50
78779;DHT22;68121;52.404;5.318;2023-10-09T15:31:58;20.30;70.50
78779;DHT22;68121;52.404;5.318;2023-10-09T15:34:33;20.30;70.60
78779;DHT22;68121;52.404;5.318;2023-10-09T15:37:05;20.30;70.70
78779;DHT22;68121;52.404;5.318;2023-10-09T15:39:36;20.20;70.70
78779;DHT22;68121;52.404;5.318;2023-10-09T15:42:03;20.20;70.70
78779;DHT22;68121;52.404;5.318;2023-10-09T15:44:32;20.10;70.80
78779;DHT22;68121;52.404;5.318;2023-10-09T15:47:08;20.10;70.80
78779;DHT22;68121;52.404;5.318;2023-10-09T15:49:38;20.10;70.90
78779;DHT22;68121;52.404;5.318;2023-10-09T15:52:07;20.00;71.00
78779;DHT22;68121;52.404;5.318;2023-10-09T15:54:34;20.00;71.00
78779;DHT22;68121;52.404;5.318;2023-10-09T15:57:01;20.00;71.00
78779;DHT22;68121;52.404;5.318;2023-10-09T15:59:27;19.90;71.10
78779;DHT22;68121;52.404;5.318;2023-10-09T16:01:53;19.90;71.20
78779;DHT22;68121;52.404;5.318;2023-10-09T16:04:19;19.80;71.20
78779;DHT22;68121;52.404;5.318;2023-10-09T16:06:45;19.70;71.40
78779;DHT22;68121;52.404;5.318;2023-10-09T16:09:12;19.70;71.40
78779;DHT22;68121;52.404;5.318;2023-10-09T16:11:41;19.70;71.40
78779;DHT22;68121;52.404;5.318;2023-10-09T16:14:07;19.70;71.40
78779;DHT22;68121;52.404;5.318;2023-10-09T16:16:36;19.70;71.50
78779;DHT22;68121;52.404;5.318;2023-10-09T16:19:08;19.70;71.50
78779;DHT22;68121;52.404;5.318;2023-10-09T16:21:39;19.60;71.50
78779;DHT22;68121;52.404;5.318;2023-10-09T16:24:06;19.60;71.60
78779;DHT22;68121;52.404;5.318;2023-10-09T16:26:35;19.50;71.60